Hauptseite
METAR-TAF:

METAR-TAF

Flughäfen :

Toussus-le-Noble, Frankreich

Flugplatz Toussus-le-Noble

Breite: 48-46N, Länge: 002-06E, Höhe: 164 m

METAR: fehlend

Zeit: 02:07 (01:07 UTC)

Prognose

Neuester Wetterbericht von vor 8 Stunden und 7 Minuten, um 17:00 UTC
Gültige Prognose vom 19 um 18 UTC bis 20 um 03 UTC
Wind 10 kt aus West
Sichtweite 10 km oder mehr
Aufgelockert bewölkt in der Höhe von 2000 ft
Durchbrochene Bewölkung in der Höhe von 3000 ft
Zeitweise
vom 19 um 18 UTC bis 19 um 20 UTC
Wind 15 kt aus West, Böen bis zu 25 kt
Sichtweite: 4000 m
Durchbrochene Bewölkung in der Höhe von 1200 ft
Aufgelockert bewölkt in der Höhe von 1800 ft, Towering cumulus.
Regenschauer

TAF: LFPN 191700Z 1918/2003 26010KT 9999 SCT020 BKN030 TEMPO 1918/1920 27015G25KT 4000 -SHRA BKN012 SCT018TCU

Wetterbeobachtungen und Prognosen von mehr als 4000 Flughäfen (METAR und TAF Bericht).

Die verfügbaren Stationen werden durch gelbe und rote Markierungen auf der Karte dargestellt.

Führen Sie die Maus auf sie, um den Namen der Station zu sehen.

Darauf klicken, um die Beobachtung von Wetterbeobachtungen und Prognosen zu sehen.

Um die Karte zu ändern : klicken Sie auf den grünen Tasten mit einem schwarzen Kreuz Zum Vergrößern, auf den grünen Button mit einem Gedankenstrich zu verkleinern, oder auf die grünen Pfeile für benachbarte Karten.


METAR-TAF: